Time;durP1;ratioP1;P1;durP2;ratioP2;P2;SDS_P1;SDS_P2;PMS_P1;PMS_P2;Temp;Humidity;BMP_temperature;BMP_pressure;BME280_temperature;BME280_humidity;BME280_pressure;Samples;Min_cycle;Max_cycle;Signal;HPM_P1;HPM_P2
2022/01/06 00:01:06;;;;;;;10.43;2.97;;;;;;;2.44;79.16;98531.31;5092963;28;20190;-60
2022/01/06 00:03:35;;;;;;;11.40;2.70;;;;;;;2.44;80.72;98539.03;5093805;28;20190;-60
2022/01/06 00:06:06;;;;;;;9.23;3.57;;;;;;;2.47;79.15;98530.31;5086259;28;20213;-60
2022/01/06 00:08:35;;;;;;;12.97;3.30;;;;;;;2.45;79.11;98540.69;5089942;28;20667;-60
2022/01/06 00:11:05;;;;;;;9.80;2.73;;;;;;;2.46;79.79;98542.34;5091313;28;20265;-60
2022/01/06 00:13:36;;;;;;;15.40;3.67;;;;;;;2.48;79.85;98547.41;5092826;28;20289;-61
2022/01/06 00:16:12;;;;;;;12.07;3.30;;;;;;;2.47;80.13;98545.75;5093402;28;20216;-59
2022/01/06 00:24:09;;;;;;;10.53;3.17;;;;;;;2.54;78.77;98551.31;5092889;28;20186;-60
2022/01/06 00:26:36;;;;;;;18.93;3.27;;;;;;;2.53;80.31;98541.94;5092700;28;20206;-60
2022/01/06 00:29:03;;;;;;;7.43;2.93;;;;;;;2.50;80.28;98551.53;5093097;28;20178;-59
2022/01/06 00:31:31;;;;;;;10.00;3.20;;;;;;;2.54;80.61;98548.75;5092278;28;20182;-60
2022/01/06 00:34:00;;;;;;;10.67;3.30;;;;;;;2.53;80.86;98545.34;5092537;28;20679;-61
2022/01/06 00:36:28;;;;;;;9.73;3.03;;;;;;;2.55;80.70;98548.66;5092822;28;20796;-59
2022/01/06 00:38:55;;;;;;;9.20;3.30;;;;;;;2.55;80.61;98545.25;5092654;28;20184;-61
2022/01/06 00:41:22;;;;;;;11.50;3.60;;;;;;;2.57;80.30;98541.66;5091564;28;20239;-60
2022/01/06 00:43:49;;;;;;;10.43;3.10;;;;;;;2.56;81.01;98547.72;5092785;28;20178;-60
2022/01/06 00:46:17;;;;;;;10.53;3.50;;;;;;;2.58;80.98;98553.59;5092508;28;20268;-60
2022/01/06 00:48:43;;;;;;;16.20;4.17;;;;;;;2.60;79.79;98548.34;5092290;28;20269;-60
2022/01/06 00:51:12;;;;;;;12.20;3.60;;;;;;;2.57;79.99;98556.28;5091845;28;20651;-60
2022/01/06 00:53:39;;;;;;;19.40;3.87;;;;;;;2.57;79.83;98545.97;5092609;28;20265;-60
2022/01/06 00:56:06;;;;;;;8.73;3.17;;;;;;;2.55;80.01;98550.41;5092059;28;20209;-59
2022/01/06 00:58:34;;;;;;;9.30;3.67;;;;;;;2.59;81.24;98555.25;5091654;28;20186;-60
2022/01/06 01:01:01;;;;;;;11.27;3.27;;;;;;;2.59;80.38;98552.69;5091942;28;20186;-61
2022/01/06 01:03:29;;;;;;;18.63;3.80;;;;;;;2.56;80.10;98549.47;5092102;28;20692;-58
2022/01/06 01:05:57;;;;;;;10.70;3.27;;;;;;;2.59;81.11;98551.84;5090417;28;20206;-61
2022/01/06 01:08:26;;;;;;;10.93;3.53;;;;;;;2.61;80.76;98561.13;5084380;28;20194;-61
2022/01/06 01:10:56;;;;;;;14.20;4.10;;;;;;;2.59;80.31;98564.72;5090762;28;20204;-59
2022/01/06 01:13:29;;;;;;;11.83;3.73;;;;;;;2.59;81.06;98568.16;5092167;28;20194;-60
2022/01/06 01:16:00;;;;;;;13.83;3.27;;;;;;;2.55;82.12;98574.44;5092209;28;20221;-60
2022/01/06 01:18:28;;;;;;;13.37;3.70;;;;;;;2.52;83.31;98572.06;5091666;28;20547;-60
2022/01/06 01:20:55;;;;;;;11.77;3.60;;;;;;;2.45;83.03;98573.38;5091243;28;20266;-61
2022/01/06 01:23:23;;;;;;;13.50;4.10;;;;;;;2.45;84.88;98584.50;5091865;28;20186;-60
2022/01/06 01:25:52;;;;;;;13.43;4.27;;;;;;;2.41;85.40;98579.66;5091612;28;20205;-61
2022/01/06 01:28:20;;;;;;;10.60;3.90;;;;;;;2.41;86.32;98580.47;5090853;28;20197;-60
2022/01/06 01:31:02;;;;;;;9.13;3.83;;;;;;;2.41;85.73;98579.66;5091338;28;20194;-59
2022/01/06 01:33:31;;;;;;;12.90;3.60;;;;;;;2.38;87.05;98585.00;5091691;28;20198;-59
2022/01/06 01:35:58;;;;;;;12.23;3.90;;;;;;;2.34;87.93;98579.22;5091815;28;20586;-58
2022/01/06 01:38:24;;;;;;;14.27;3.70;;;;;;;2.33;88.21;98585.28;5091777;28;20194;-59
2022/01/06 01:40:53;;;;;;;14.20;4.03;;;;;;;2.35;88.99;98586.84;5090576;28;20611;-60
2022/01/06 01:43:19;;;;;;;15.20;4.07;;;;;;;2.37;87.43;98594.47;5091467;28;20189;-57
2022/01/06 01:45:54;;;;;;;12.17;5.10;;;;;;;2.37;88.57;98599.63;5091766;28;20692;-59
2022/01/06 01:48:26;;;;;;;16.60;4.37;;;;;;;2.39;89.07;98594.38;5091249;28;20192;-59
2022/01/06 01:50:53;;;;;;;10.67;4.47;;;;;;;2.39;89.58;98602.94;5090279;28;20682;-59
2022/01/06 01:53:21;;;;;;;13.87;4.33;;;;;;;2.33;89.24;98590.44;5091563;28;20181;-60
2022/01/06 01:55:48;;;;;;;16.87;4.93;;;;;;;2.31;89.15;98595.69;5090821;28;20218;-59
2022/01/06 01:58:16;;;;;;;11.13;4.73;;;;;;;2.35;89.72;98594.59;5091694;28;20185;-59
2022/01/06 02:00:43;;;;;;;14.23;4.40;;;;;;;2.32;89.06;98596.50;5090574;28;20239;-59
2022/01/06 02:03:10;;;;;;;11.53;4.00;;;;;;;2.33;89.20;98598.16;5089694;28;20231;-58
2022/01/06 02:05:37;;;;;;;18.43;4.97;;;;;;;2.32;89.10;98597.34;5091599;28;20221;-59
2022/01/06 02:08:05;;;;;;;13.17;5.43;;;;;;;2.32;90.13;98601.66;5084862;28;20273;-59
2022/01/06 02:10:32;;;;;;;12.30;4.40;;;;;;;2.33;89.53;98600.75;5087043;28;20280;-59
2022/01/06 02:13:01;;;;;;;12.73;4.43;;;;;;;2.36;89.52;98611.69;5085034;28;20732;-59
2022/01/06 02:15:29;;;;;;;13.17;4.20;;;;;;;2.35;90.15;98607.47;5091385;28;20221;-59
2022/01/06 02:17:56;;;;;;;17.73;4.53;;;;;;;2.36;91.27;98610.84;5090857;28;20682;-59
2022/01/06 02:20:24;;;;;;;12.30;4.80;;;;;;;2.33;90.43;98614.47;5090446;28;20229;-59
2022/01/06 02:22:52;;;;;;;16.77;5.03;;;;;;;2.30;91.00;98606.09;5091122;28;20186;-59
2022/01/06 02:25:21;;;;;;;15.83;5.07;;;;;;;2.32;90.57;98607.66;5090480;28;20208;-58
2022/01/06 02:27:50;;;;;;;9.07;4.10;;;;;;;2.36;90.76;98616.84;5091662;28;20579;-59
2022/01/06 02:30:17;;;;;;;14.33;5.20;;;;;;;2.32;90.89;98617.13;5090357;28;20190;-59
2022/01/06 02:32:44;;;;;;;12.97;4.87;;;;;;;2.31;90.23;98618.03;5091132;28;20190;-59
2022/01/06 02:35:13;;;;;;;13.53;5.13;;;;;;;2.34;89.82;98621.28;5086046;28;20210;-59
2022/01/06 02:37:42;;;;;;;14.40;5.23;;;;;;;2.32;91.08;98619.69;5090109;28;20189;-59
2022/01/06 02:40:11;;;;;;;11.80;5.03;;;;;;;2.32;91.53;98617.13;5090203;28;20187;-59
2022/01/06 02:42:41;;;;;;;11.20;4.40;;;;;;;2.33;90.62;98624.78;5090957;28;20621;-59
2022/01/06 02:45:09;;;;;;;16.50;5.40;;;;;;;2.34;90.85;98625.56;5091287;28;20214;-59
2022/01/06 02:47:36;;;;;;;11.77;4.90;;;;;;;2.31;90.45;98615.47;5090595;28;20205;-59
2022/01/06 02:50:05;;;;;;;10.70;4.87;;;;;;;2.34;90.87;98623.00;5089969;28;20182;-59
2022/01/06 02:52:32;;;;;;;13.00;4.57;;;;;;;2.33;90.91;98622.19;5090894;28;20209;-58
2022/01/06 02:55:00;;;;;;;12.47;4.97;;;;;;;2.34;91.90;98626.41;5090798;28;20233;-59
2022/01/06 02:57:26;;;;;;;17.80;5.77;;;;;;;2.30;91.15;98629.28;5091320;28;20194;-59
2022/01/06 02:59:53;;;;;;;23.40;5.70;;;;;;;2.29;91.73;98619.91;5090524;28;20194;-59
2022/01/06 03:02:20;;;;;;;11.87;5.20;;;;;;;2.30;91.60;98624.97;5089859;28;20190;-58
2022/01/06 03:04:47;;;;;;;9.47;4.90;;;;;;;2.29;91.34;98627.63;5094304;28;20277;-59
2022/01/06 03:07:13;;;;;;;14.60;5.17;;;;;;;2.31;91.74;98620.63;5094654;28;20294;-59
2022/01/06 03:09:42;;;;;;;11.97;5.43;;;;;;;2.28;91.01;98636.28;5084992;28;20196;-59
2022/01/06 03:12:21;;;;;;;14.30;4.63;;;;;;;2.29;91.78;98632.78;5074275;28;20196;-59
2022/01/06 03:14:48;;;;;;;15.83;4.90;;;;;;;2.34;90.87;98641.88;5085694;28;20634;-59
2022/01/06 03:17:14;;;;;;;15.30;4.97;;;;;;;2.31;91.84;98644.66;5091634;28;20229;-59
2022/01/06 03:19:41;;;;;;;16.07;5.07;;;;;;;2.31;91.78;98638.66;5093342;28;20239;-59
2022/01/06 03:22:09;;;;;;;13.13;4.80;;;;;;;2.36;91.53;98649.50;5094022;28;20256;-59
2022/01/06 03:24:35;;;;;;;14.07;5.40;;;;;;;2.39;92.08;98651.06;5094793;28;20444;-58
2022/01/06 03:27:02;;;;;;;13.40;5.23;;;;;;;2.41;92.25;98657.75;5094789;28;20892;-58
2022/01/06 03:29:30;;;;;;;15.83;6.00;;;;;;;2.38;91.64;98659.72;5094420;28;20206;-57
2022/01/06 03:31:58;;;;;;;17.03;5.67;;;;;;;2.33;92.44;98665.13;5094171;28;20186;-58
2022/01/06 03:34:26;;;;;;;16.80;5.90;;;;;;;2.33;92.63;98668.56;5094842;28;20198;-59
2022/01/06 03:36:53;;;;;;;14.27;4.63;;;;;;;2.38;92.60;98662.28;5094620;28;20230;-58
2022/01/06 03:39:21;;;;;;;13.60;5.27;;;;;;;2.44;91.95;98673.00;5094508;28;20187;-58
2022/01/06 03:41:48;;;;;;;8.93;4.17;;;;;;;2.37;91.68;98671.75;5093737;28;20676;-58
2022/01/06 03:44:15;;;;;;;10.53;4.53;;;;;;;2.35;91.74;98668.44;5094232;28;20719;-59
2022/01/06 03:46:43;;;;;;;11.10;4.67;;;;;;;2.37;92.41;98671.75;5094096;28;20210;-61
2022/01/06 03:49:10;;;;;;;11.97;4.47;;;;;;;2.30;93.25;98679.06;5094210;28;20209;-59
2022/01/06 03:51:36;;;;;;;13.70;5.03;;;;;;;2.27;92.76;98688.72;5093532;28;20273;-59
2022/01/06 03:54:03;;;;;;;12.07;4.17;;;;;;;2.26;93.44;98690.47;5094201;28;20269;-58
2022/01/06 03:56:30;;;;;;;11.77;4.40;;;;;;;2.25;94.59;98693.13;5094318;28;20252;-59
2022/01/06 03:58:58;;;;;;;15.13;4.50;;;;;;;2.15;95.29;98692.88;5093175;28;20277;-59
2022/01/06 04:01:25;;;;;;;18.47;5.27;;;;;;;2.15;96.02;98700.63;5093421;28;20182;-59
2022/01/06 04:03:53;;;;;;;13.73;5.10;;;;;;;2.15;96.66;98693.69;5093971;28;20277;-58
2022/01/06 04:06:20;;;;;;;20.27;6.73;;;;;;;2.18;97.26;98696.09;5093896;28;20236;-58
2022/01/06 04:08:47;;;;;;;14.10;5.10;;;;;;;2.21;95.28;98698.47;5092529;28;20196;-59
2022/01/06 04:11:14;;;;;;;14.37;5.40;;;;;;;2.19;95.06;98694.34;5091711;28;20243;-59
2022/01/06 04:13:41;;;;;;;7.30;4.63;;;;;;;2.15;94.67;98696.28;5093345;28;20661;-59
2022/01/06 04:16:10;;;;;;;13.13;4.67;;;;;;;2.20;94.89;98701.16;5093559;28;20715;-58
2022/01/06 04:18:37;;;;;;;12.20;5.03;;;;;;;2.29;94.35;98704.91;5093797;28;20182;-57
2022/01/06 04:21:06;;;;;;;13.33;4.53;;;;;;;2.22;94.44;98704.47;5093300;28;20621;-57
2022/01/06 04:23:34;;;;;;;9.67;4.60;;;;;;;2.21;95.31;98701.06;5093634;28;20201;-59
2022/01/06 04:26:00;;;;;;;15.67;5.37;;;;;;;2.25;95.71;98711.16;5093087;28;20263;-59
2022/01/06 04:28:27;;;;;;;14.90;4.90;;;;;;;2.26;95.76;98711.09;5093174;28;20656;-58
2022/01/06 04:30:54;;;;;;;11.00;4.30;;;;;;;2.26;95.62;98713.66;5092744;28;20752;-59
2022/01/06 04:33:21;;;;;;;14.40;4.57;;;;;;;2.29;95.26;98713.47;5093315;28;20234;-58
2022/01/06 04:35:48;;;;;;;12.50;4.73;;;;;;;2.32;96.50;98718.44;5089384;28;20278;-59
2022/01/06 04:38:16;;;;;;;12.43;4.60;;;;;;;2.30;96.21;98719.44;5090110;28;20236;-58
2022/01/06 04:40:43;;;;;;;9.00;4.73;;;;;;;2.23;96.11;98721.56;5091901;28;20179;-59
2022/01/06 04:43:10;;;;;;;11.47;4.97;;;;;;;2.27;96.06;98723.03;5091620;28;20668;-58
2022/01/06 04:45:38;;;;;;;12.70;4.47;;;;;;;2.31;96.01;98723.66;5089802;28;20194;-59
2022/01/06 04:48:05;;;;;;;10.90;5.20;;;;;;;2.29;94.83;98725.50;5092538;28;20209;-58
2022/01/06 04:50:32;;;;;;;14.30;4.70;;;;;;;2.17;94.63;98722.75;5090224;28;20589;-59
2022/01/06 04:52:59;;;;;;;11.77;4.37;;;;;;;2.16;95.69;98728.84;5090727;28;20285;-59
2022/01/06 04:55:27;;;;;;;10.52;5.22;;;;;;;2.16;96.71;98736.56;5091180;28;20527;-58
2022/01/06 04:57:54;;;;;;;10.13;4.50;;;;;;;2.21;95.93;98738.88;5092108;28;20273;-59
2022/01/06 05:00:21;;;;;;;15.80;4.57;;;;;;;2.03;95.35;98740.84;5091308;28;20200;-58
2022/01/06 05:02:48;;;;;;;15.17;4.60;;;;;;;1.98;96.51;98743.69;5091598;28;20219;-59
2022/01/06 05:05:14;;;;;;;9.57;4.63;;;;;;;1.95;96.58;98746.44;5091198;28;20235;-59
2022/01/06 05:07:42;;;;;;;9.73;4.93;;;;;;;1.89;97.03;98750.22;5091470;28;20194;-59
2022/01/06 05:10:10;;;;;;;11.53;4.60;;;;;;;1.86;98.09;98755.56;5090644;28;20277;-58
2022/01/06 05:12:40;;;;;;;10.70;4.70;;;;;;;1.90;98.07;98749.31;5092195;28;20722;-58
2022/01/06 05:15:08;;;;;;;11.53;4.73;;;;;;;1.98;98.80;98753.16;5092725;28;20674;-58
2022/01/06 05:17:35;;;;;;;10.80;4.90;;;;;;;2.02;98.92;98754.63;5092898;28;20182;-56
2022/01/06 05:20:02;;;;;;;9.23;4.50;;;;;;;1.99;97.75;98753.06;5092103;28;20186;-57
2022/01/06 05:22:29;;;;;;;8.80;4.23;;;;;;;2.11;98.36;98758.38;5092918;28;20205;-57
2022/01/06 05:24:56;;;;;;;6.33;3.40;;;;;;;2.11;96.88;98761.78;5092596;28;20587;-59
2022/01/06 05:27:23;;;;;;;8.53;3.90;;;;;;;2.10;95.07;98757.56;5092054;28;20206;-57
2022/01/06 05:29:52;;;;;;;5.67;3.57;;;;;;;2.05;95.48;98749.28;5091706;28;20186;-59
2022/01/06 05:32:19;;;;;;;8.47;4.07;;;;;;;2.06;96.51;98749.19;5092469;28;20273;-58
2022/01/06 05:34:45;;;;;;;9.13;4.07;;;;;;;2.10;96.88;98751.56;5092975;28;20183;-58
2022/01/06 05:37:12;;;;;;;9.77;3.60;;;;;;;2.10;96.78;98755.00;5092386;28;20300;-59
2022/01/06 05:39:39;;;;;;;7.73;4.17;;;;;;;2.14;97.71;98751.28;5091743;28;20622;-58
2022/01/06 05:42:07;;;;;;;6.93;3.90;;;;;;;2.15;96.83;98752.13;5091414;28;20721;-58
2022/01/06 05:44:34;;;;;;;11.87;5.80;;;;;;;2.17;96.34;98769.13;5092387;28;20183;-57
2022/01/06 05:47:02;;;;;;;8.70;4.60;;;;;;;2.16;96.43;98775.19;5090860;28;20292;-56
2022/01/06 05:49:29;;;;;;;9.17;4.43;;;;;;;2.19;97.14;98776.78;5092367;28;20280;-58
2022/01/06 05:51:56;;;;;;;8.67;4.07;;;;;;;2.25;97.51;98775.56;5091541;28;20189;-58
2022/01/06 05:54:23;;;;;;;7.17;3.90;;;;;;;2.29;96.47;98783.00;5092251;28;20190;-58
2022/01/06 05:56:49;;;;;;;6.30;3.90;;;;;;;2.26;96.10;98780.63;5091904;28;20291;-58
2022/01/06 05:59:16;;;;;;;10.97;4.47;;;;;;;2.26;95.88;98778.06;5092393;28;20598;-57
2022/01/06 06:01:45;;;;;;;12.30;5.03;;;;;;;2.30;95.17;98782.09;5090407;28;20269;-59
2022/01/06 06:04:14;;;;;;;11.53;5.00;;;;;;;2.33;95.84;98787.06;5092100;28;20239;-58
2022/01/06 06:06:41;;;;;;;12.70;5.43;;;;;;;2.33;95.53;98789.63;5091927;28;20364;-59
2022/01/06 06:09:08;;;;;;;13.77;5.00;;;;;;;2.25;96.72;98788.44;5092126;28;20240;-59
2022/01/06 06:11:35;;;;;;;16.63;5.50;;;;;;;2.28;96.39;98788.25;5091290;28;20257;-59
2022/01/06 06:14:02;;;;;;;11.53;5.43;;;;;;;2.25;96.88;98793.59;5091981;28;20181;-58
2022/01/06 06:16:28;;;;;;;10.93;5.80;;;;;;;2.27;95.79;98789.16;5091864;28;20220;-58
2022/01/06 06:18:55;;;;;;;10.63;4.80;;;;;;;2.27;95.86;98800.31;5092125;28;20572;-59
2022/01/06 06:21:23;;;;;;;9.63;4.90;;;;;;;2.26;95.63;98800.38;5091148;28;20189;-59
2022/01/06 06:23:51;;;;;;;12.63;5.17;;;;;;;2.26;95.76;98797.81;5092097;28;20189;-60
2022/01/06 06:26:17;;;;;;;9.87;4.40;;;;;;;2.32;95.29;98807.75;5091808;28;20262;-56
2022/01/06 06:28:44;;;;;;;14.23;5.07;;;;;;;2.35;94.57;98808.41;5091606;28;20196;-59
2022/01/06 06:31:11;;;;;;;7.63;4.60;;;;;;;2.31;95.79;98808.66;5089927;28;20186;-59
2022/01/06 06:33:38;;;;;;;9.73;4.57;;;;;;;2.31;95.10;98814.66;5091774;28;20186;-59
2022/01/06 06:36:06;;;;;;;12.23;4.80;;;;;;;2.32;94.14;98815.47;5091599;28;20211;-59
2022/01/06 06:38:34;;;;;;;15.13;4.87;;;;;;;2.33;94.57;98815.41;5093970;28;20268;-57
2022/01/06 06:41:02;;;;;;;10.00;4.40;;;;;;;2.35;96.21;98812.72;5095226;28;20186;-59
2022/01/06 06:43:28;;;;;;;12.07;5.50;;;;;;;2.39;96.03;98824.47;5096025;28;20673;-59
2022/01/06 06:45:55;;;;;;;10.07;5.20;;;;;;;2.41;95.11;98821.81;5095721;28;20213;-58
2022/01/06 06:48:24;;;;;;;11.13;5.00;;;;;;;2.46;93.44;98823.19;5095896;28;20185;-59
2022/01/06 06:50:51;;;;;;;11.53;4.60;;;;;;;2.38;95.45;98827.97;5094943;28;20190;-59
2022/01/06 06:53:18;;;;;;;12.50;4.53;;;;;;;2.31;95.68;98831.84;5095699;28;20186;-59
2022/01/06 06:55:46;;;;;;;18.00;5.40;;;;;;;2.30;96.43;98835.34;5095334;28;20248;-58
2022/01/06 06:58:13;;;;;;;8.83;4.27;;;;;;;2.24;96.55;98835.72;5095422;28;20182;-57
2022/01/06 07:00:43;;;;;;;8.63;5.33;;;;;;;2.23;97.82;98834.91;5094792;28;20708;-59
2022/01/06 07:03:32;;;;;;;10.97;5.10;;;;;;;2.27;96.45;98835.53;5095435;28;20186;-59
2022/01/06 07:05:59;;;;;;;9.57;4.90;;;;;;;2.25;95.83;98842.53;5095318;28;20676;-57
2022/01/06 07:08:26;;;;;;;13.40;5.57;;;;;;;2.28;96.79;98842.34;5095493;28;20226;-59
2022/01/06 07:10:54;;;;;;;9.83;4.93;;;;;;;2.39;94.91;98845.09;5094803;28;20186;-59
2022/01/06 07:13:21;;;;;;;7.93;4.83;;;;;;;2.28;95.45;98853.47;5095332;28;20675;-59
2022/01/06 07:15:49;;;;;;;10.60;4.77;;;;;;;2.22;95.63;98861.56;5095081;28;20744;-59
2022/01/06 07:18:16;;;;;;;12.90;5.13;;;;;;;2.21;96.75;98863.31;5095325;28;20602;-59
2022/01/06 07:20:42;;;;;;;9.03;4.70;;;;;;;2.17;97.66;98856.69;5094288;28;20197;-58
2022/01/06 07:23:09;;;;;;;14.63;5.20;;;;;;;2.15;97.54;98862.88;5095032;28;20217;-59
2022/01/06 07:25:36;;;;;;;15.50;5.73;;;;;;;2.12;97.65;98860.47;5094953;28;20201;-57
2022/01/06 07:28:05;;;;;;;9.50;5.40;;;;;;;2.14;97.99;98862.00;5094821;28;20265;-59
2022/01/06 07:30:35;;;;;;;10.63;4.60;;;;;;;2.17;97.83;98866.16;5094284;28;20560;-59
2022/01/06 07:33:02;;;;;;;9.07;5.33;;;;;;;2.13;97.54;98870.66;5094948;28;20190;-58
2022/01/06 07:35:29;;;;;;;14.07;5.43;;;;;;;2.14;98.51;98872.31;5094722;28;20210;-55
2022/01/06 07:37:56;;;;;;;13.20;5.63;;;;;;;2.25;97.72;98871.69;5094707;28;20308;-59
2022/01/06 07:40:26;;;;;;;11.43;5.03;;;;;;;2.15;97.21;98873.97;5094159;28;20205;-59
2022/01/06 07:42:52;;;;;;;14.97;5.40;;;;;;;2.16;97.78;98882.53;5094687;28;20194;-56
2022/01/06 07:45:21;;;;;;;14.57;5.80;;;;;;;2.10;97.35;98881.19;5094649;28;20206;-59
2022/01/06 07:48:00;;;;;;;12.77;6.50;;;;;;;2.15;97.39;98889.44;5093631;28;20425;-59
2022/01/06 07:50:29;;;;;;;29.83;15.87;;;;;;;2.22;97.91;98884.75;5088102;28;20194;-59
2022/01/06 07:52:55;;;;;;;17.13;7.17;;;;;;;2.26;97.75;98885.38;5089333;28;20197;-58
2022/01/06 07:55:22;;;;;;;21.77;8.50;;;;;;;2.30;96.00;98889.44;5093862;28;20201;-59
2022/01/06 07:57:50;;;;;;;17.40;9.83;;;;;;;2.37;96.63;98893.31;5093093;28;20216;-57
2022/01/06 08:00:18;;;;;;;22.43;7.67;;;;;;;2.43;96.67;98890.38;5085722;28;20197;-58
2022/01/06 08:02:46;;;;;;;20.10;8.73;;;;;;;2.49;96.15;98899.50;5090446;28;20647;-59
2022/01/06 08:05:15;;;;;;;16.90;6.93;;;;;;;2.48;95.14;98905.56;5093678;28;20194;-58
2022/01/06 08:07:42;;;;;;;20.63;8.53;;;;;;;2.49;94.94;98897.72;5093818;28;20174;-59
2022/01/06 08:10:11;;;;;;;18.13;7.20;;;;;;;2.54;95.04;98905.19;5093266;28;20236;-59
2022/01/06 08:12:38;;;;;;;62.90;24.97;;;;;;;2.58;94.50;98908.41;5091152;28;20192;-59
2022/01/06 08:15:06;;;;;;;23.20;9.67;;;;;;;2.57;94.99;98905.00;5088546;28;20194;-58
2022/01/06 08:17:32;;;;;;;24.33;9.77;;;;;;;2.60;93.44;98901.41;5088072;28;20223;-57
2022/01/06 08:20:01;;;;;;;16.10;8.13;;;;;;;2.72;93.68;98907.53;5085655;28;20243;-59
2022/01/06 08:22:29;;;;;;;19.00;6.77;;;;;;;2.72;93.44;98908.38;5093763;28;20678;-58
2022/01/06 08:24:56;;;;;;;17.35;9.50;;;;;;;2.76;93.58;98907.28;5093579;28;20447;-59
2022/01/06 08:27:23;;;;;;;12.87;6.63;;;;;;;2.76;93.40;98909.84;5093810;28;20202;-59
2022/01/06 08:29:51;;;;;;;12.33;6.63;;;;;;;2.83;94.22;98910.28;5093282;28;20189;-59
2022/01/06 08:32:18;;;;;;;16.83;8.10;;;;;;;2.84;94.54;98913.72;5093887;28;20599;-57
2022/01/06 08:34:45;;;;;;;20.13;7.50;;;;;;;2.80;92.76;98907.91;5094027;28;20769;-59
2022/01/06 08:37:13;;;;;;;13.13;6.00;;;;;;;2.80;93.82;98913.91;5093634;28;20300;-59
2022/01/06 08:39:40;;;;;;;14.43;7.53;;;;;;;2.70;93.20;98925.69;5092902;28;20608;-59
2022/01/06 08:42:07;;;;;;;21.50;7.43;;;;;;;2.75;93.51;98925.41;5093467;28;20190;-58
2022/01/06 08:44:34;;;;;;;19.83;9.20;;;;;;;2.76;93.25;98927.06;5093553;28;20644;-59
2022/01/06 08:47:01;;;;;;;15.77;6.97;;;;;;;2.80;91.11;98934.53;5093471;28;20202;-59
2022/01/06 08:49:29;;;;;;;20.40;8.03;;;;;;;2.73;93.11;98934.97;5087277;28;20591;-59
2022/01/06 08:51:55;;;;;;;17.83;7.83;;;;;;;2.73;93.71;98934.97;5092603;28;20323;-59
2022/01/06 08:54:23;;;;;;;13.37;7.03;;;;;;;2.83;92.73;98936.09;5093249;28;20655;-60
2022/01/06 08:56:50;;;;;;;21.40;7.97;;;;;;;2.86;92.54;98945.41;5093044;28;20552;-60
2022/01/06 08:59:17;;;;;;;23.13;7.60;;;;;;;2.87;92.98;98947.06;5093232;28;20307;-59
2022/01/06 09:01:44;;;;;;;10.40;6.30;;;;;;;2.83;92.72;98943.81;5092537;28;20182;-59
2022/01/06 09:04:11;;;;;;;19.37;7.10;;;;;;;2.86;92.30;98946.22;5092966;28;20213;-60
2022/01/06 09:06:37;;;;;;;18.73;7.10;;;;;;;2.76;91.71;98940.78;5093099;28;20752;-58
2022/01/06 09:09:04;;;;;;;14.80;8.13;;;;;;;2.76;92.19;98940.78;5092866;28;20187;-58
2022/01/06 09:11:32;;;;;;;15.63;6.93;;;;;;;2.75;92.78;98939.13;5092123;28;20236;-58
2022/01/06 09:13:59;;;;;;;17.97;7.93;;;;;;;2.64;92.60;98947.53;5092929;28;20187;-58
2022/01/06 09:16:26;;;;;;;15.40;6.83;;;;;;;2.72;92.74;98944.47;5102017;22;20237;-52
2022/01/06 09:18:53;;;;;;;18.60;7.70;;;;;;;2.75;93.72;98949.44;5029372;28;20192;-54
2022/01/06 09:21:22;;;;;;;24.03;9.37;;;;;;;2.81;94.04;98955.97;5029512;28;20658;-52
2022/01/06 09:23:50;;;;;;;16.20;7.73;;;;;;;2.72;94.19;98959.94;5032522;28;20201;-54
2022/01/06 09:26:17;;;;;;;24.37;8.70;;;;;;;2.79;94.06;98966.38;5032439;28;20184;-54
2022/01/06 09:28:46;;;;;;;19.53;8.20;;;;;;;2.83;93.22;98977.34;5031308;28;20192;-56
2022/01/06 09:31:13;;;;;;;15.57;8.20;;;;;;;2.98;92.51;98973.00;5031691;28;20195;-54
2022/01/06 09:33:40;;;;;;;19.03;8.13;;;;;;;3.07;93.20;98975.03;5032467;28;20243;-55
2022/01/06 09:36:07;;;;;;;23.30;9.47;;;;;;;3.10;91.37;98974.84;5032195;28;20187;-53
2022/01/06 09:38:34;;;;;;;14.83;8.67;;;;;;;3.14;91.25;98970.31;5032415;28;20209;-55
2022/01/06 09:41:03;;;;;;;21.93;8.83;;;;;;;3.16;91.12;98965.06;5031745;28;20191;-53
2022/01/06 09:43:32;;;;;;;13.87;8.20;;;;;;;3.23;91.49;98969.72;5032243;28;20228;-54
2022/01/06 09:46:06;;;;;;;19.83;10.23;;;;;;;3.18;90.00;98979.50;5032411;28;20191;-55
2022/01/06 09:48:35;;;;;;;16.93;7.90;;;;;;;3.16;90.66;98976.19;5032318;28;20206;-55
2022/01/06 09:51:03;;;;;;;21.53;11.37;;;;;;;3.15;91.36;98986.63;5031784;28;20628;-53
2022/01/06 09:53:29;;;;;;;21.33;8.50;;;;;;;2.98;91.80;98978.16;5032322;28;20646;-53
2022/01/06 09:55:56;;;;;;;18.60;8.67;;;;;;;3.00;92.00;98981.47;5032337;28;20191;-54
2022/01/06 09:58:26;;;;;;;22.17;8.03;;;;;;;2.99;91.47;98990.13;5032236;28;20265;-53
2022/01/06 10:00:55;;;;;;;25.03;11.63;;;;;;;3.04;91.93;98984.69;5031752;28;20241;-53
2022/01/06 10:03:34;;;;;;;20.37;9.27;;;;;;;3.11;90.53;98996.28;5032104;28;20211;-53
2022/01/06 10:06:10;;;;;;;19.80;8.03;;;;;;;3.27;89.76;98995.34;5032206;28;20246;-51
2022/01/06 10:08:37;;;;;;;20.87;9.33;;;;;;;3.31;89.85;98987.31;5032134;28;20210;-52
2022/01/06 10:11:15;;;;;;;26.10;8.13;;;;;;;3.31;89.83;98994.22;5031669;28;20184;-53
2022/01/06 10:13:45;;;;;;;16.67;8.20;;;;;;;3.51;88.42;98998.13;5032108;28;20181;-55
2022/01/06 10:16:18;;;;;;;17.20;7.73;;;;;;;3.56;88.41;98998.69;5025132;28;20305;-54
2022/01/06 10:19:05;;;;;;;15.10;7.93;;;;;;;3.64;87.73;99003.38;5027724;28;20254;-55
2022/01/06 10:21:38;;;;;;;22.07;10.10;;;;;;;3.69;86.56;98996.97;5031096;28;20271;-55
2022/01/06 10:24:08;;;;;;;26.53;10.03;;;;;;;3.80;86.76;98993.69;5031680;28;20198;-54
2022/01/06 10:26:36;;;;;;;23.53;10.33;;;;;;;3.90;84.08;98999.13;5031873;28;20283;-55
2022/01/06 10:29:07;;;;;;;19.47;7.30;;;;;;;4.01;84.64;98995.00;5031802;28;20184;-56
2022/01/06 10:31:34;;;;;;;15.03;7.03;;;;;;;4.19;85.06;99004.16;5031288;28;20548;-55
2022/01/06 10:34:07;;;;;;;16.70;6.53;;;;;;;4.21;83.03;99006.63;5031774;28;20227;-55
2022/01/06 10:36:35;;;;;;;18.23;7.27;;;;;;;4.32;82.76;98998.16;5031745;28;20238;-55
2022/01/06 10:39:05;;;;;;;14.70;6.67;;;;;;;4.30;81.91;99006.00;5031668;28;20704;-55
2022/01/06 10:41:33;;;;;;;18.00;8.27;;;;;;;4.19;82.54;99001.56;5031008;28;20202;-55
2022/01/06 10:44:01;;;;;;;18.20;7.93;;;;;;;4.23;83.68;99002.19;5031801;28;20642;-56
2022/01/06 10:46:31;;;;;;;19.93;7.13;;;;;;;4.41;82.62;99002.72;5031702;28;20235;-54
2022/01/06 10:48:58;;;;;;;16.87;7.97;;;;;;;4.40;81.82;99001.06;5031649;28;20191;-55
2022/01/06 10:51:34;;;;;;;13.23;6.30;;;;;;;4.43;83.14;98996.53;5030754;28;20216;-55
2022/01/06 10:54:02;;;;;;;13.57;6.40;;;;;;;4.51;82.59;98997.75;5031563;28;20310;-54
2022/01/06 10:56:28;;;;;;;14.10;6.20;;;;;;;4.48;82.07;98997.97;5031393;28;20223;-57
2022/01/06 10:58:59;;;;;;;17.20;7.00;;;;;;;4.48;83.16;98997.97;5031497;28;20247;-57
2022/01/06 11:01:27;;;;;;;17.13;7.70;;;;;;;4.59;83.45;99005.84;5030712;28;20203;-54
2022/01/06 11:03:54;;;;;;;21.27;7.13;;;;;;;4.61;82.72;99000.56;5031550;28;20569;-57
2022/01/06 11:06:21;;;;;;;17.77;6.23;;;;;;;4.70;81.66;99002.50;5031494;28;20215;-55
2022/01/06 11:08:51;;;;;;;16.97;7.17;;;;;;;4.70;82.06;99002.50;5031705;28;20210;-55
2022/01/06 11:11:43;;;;;;;17.40;5.90;;;;;;;4.70;82.62;99002.50;5029394;28;20196;-54
2022/01/06 11:14:14;;;;;;;14.90;5.77;;;;;;;4.59;82.73;99000.66;5031482;28;20196;-56
2022/01/06 11:16:43;;;;;;;17.27;6.83;;;;;;;4.57;82.27;99005.13;5030799;28;20273;-53
2022/01/06 11:19:12;;;;;;;12.50;5.80;;;;;;;4.73;82.10;99010.06;5030716;28;20616;-54
2022/01/06 11:21:43;;;;;;;13.20;5.67;;;;;;;4.71;82.19;99014.50;5029305;28;20684;-54
2022/01/06 11:24:14;;;;;;;15.33;5.60;;;;;;;4.63;80.24;99009.88;5032282;28;20654;-55
2022/01/06 11:26:42;;;;;;;15.73;5.77;;;;;;;4.62;79.46;99008.22;5034969;28;20279;-55
2022/01/06 11:29:11;;;;;;;15.27;5.30;;;;;;;4.48;78.24;99003.13;5035039;28;20256;-55
2022/01/06 11:31:43;;;;;;;16.40;6.33;;;;;;;4.37;77.92;99011.59;5032988;28;20684;-53
2022/01/06 11:34:13;;;;;;;13.90;5.93;;;;;;;4.18;79.51;99012.81;5035017;28;20184;-52
2022/01/06 11:36:40;;;;;;;17.70;6.90;;;;;;;3.98;81.03;99014.09;5034765;28;20204;-50
2022/01/06 11:39:09;;;;;;;15.97;6.03;;;;;;;4.08;82.55;99006.59;5034722;28;20267;-51
2022/01/06 11:41:40;;;;;;;16.23;7.40;;;;;;;4.20;84.22;99010.13;5034294;28;20200;-54
2022/01/06 11:44:16;;;;;;;11.60;5.90;;;;;;;4.34;83.49;99001.47;5034828;28;20192;-50